sensor_id;sensor_type;location;lat;lon;timestamp;P1;durP1;ratioP1;P2;durP2;ratioP2
17965;SDS011;9108;53.204;10.424;2023-12-20T00:01:01;16.85;;;2.85;;
17965;SDS011;9108;53.204;10.424;2023-12-20T00:03:29;16.58;;;2.72;;
17965;SDS011;9108;53.204;10.424;2023-12-20T00:05:56;18.83;;;3.20;;
17965;SDS011;9108;53.204;10.424;2023-12-20T00:08:23;22.90;;;3.00;;
17965;SDS011;9108;53.204;10.424;2023-12-20T00:10:50;21.85;;;3.00;;
17965;SDS011;9108;53.204;10.424;2023-12-20T00:13:17;20.75;;;2.95;;
17965;SDS011;9108;53.204;10.424;2023-12-20T00:15:46;23.45;;;2.95;;
17965;SDS011;9108;53.204;10.424;2023-12-20T00:18:13;19.23;;;2.50;;
17965;SDS011;9108;53.204;10.424;2023-12-20T00:20:40;20.00;;;2.43;;
17965;SDS011;9108;53.204;10.424;2023-12-20T00:23:08;26.27;;;2.72;;
17965;SDS011;9108;53.204;10.424;2023-12-20T00:25:35;20.00;;;2.63;;
17965;SDS011;9108;53.204;10.424;2023-12-20T00:28:02;24.30;;;2.60;;
17965;SDS011;9108;53.204;10.424;2023-12-20T00:30:29;20.42;;;2.80;;
17965;SDS011;9108;53.204;10.424;2023-12-20T00:32:58;21.17;;;3.10;;
17965;SDS011;9108;53.204;10.424;2023-12-20T00:35:25;20.80;;;2.38;;
17965;SDS011;9108;53.204;10.424;2023-12-20T00:37:52;22.35;;;2.38;;
17965;SDS011;9108;53.204;10.424;2023-12-20T00:40:20;26.63;;;2.40;;
17965;SDS011;9108;53.204;10.424;2023-12-20T00:42:47;17.58;;;2.05;;
17965;SDS011;9108;53.204;10.424;2023-12-20T00:45:14;18.67;;;2.30;;
17965;SDS011;9108;53.204;10.424;2023-12-20T00:47:41;19.65;;;2.33;;
17965;SDS011;9108;53.204;10.424;2023-12-20T00:50:10;22.58;;;2.20;;
17965;SDS011;9108;53.204;10.424;2023-12-20T00:52:37;21.30;;;2.55;;
17965;SDS011;9108;53.204;10.424;2023-12-20T00:55:05;19.52;;;2.42;;
17965;SDS011;9108;53.204;10.424;2023-12-20T00:57:32;29.23;;;2.40;;
17965;SDS011;9108;53.204;10.424;2023-12-20T00:59:59;24.35;;;2.67;;
17965;SDS011;9108;53.204;10.424;2023-12-20T01:02:27;33.60;;;3.08;;
17965;SDS011;9108;53.204;10.424;2023-12-20T01:04:54;19.98;;;2.60;;
17965;SDS011;9108;53.204;10.424;2023-12-20T01:07:22;21.65;;;2.50;;
17965;SDS011;9108;53.204;10.424;2023-12-20T01:09:50;21.90;;;2.70;;
17965;SDS011;9108;53.204;10.424;2023-12-20T01:12:17;25.88;;;2.80;;
17965;SDS011;9108;53.204;10.424;2023-12-20T01:14:45;17.73;;;2.50;;
17965;SDS011;9108;53.204;10.424;2023-12-20T01:17:12;17.95;;;2.60;;
17965;SDS011;9108;53.204;10.424;2023-12-20T01:19:39;20.70;;;2.67;;
17965;SDS011;9108;53.204;10.424;2023-12-20T01:22:06;24.10;;;2.50;;
17965;SDS011;9108;53.204;10.424;2023-12-20T01:24:35;22.58;;;2.63;;
17965;SDS011;9108;53.204;10.424;2023-12-20T01:27:02;24.13;;;2.70;;
17965;SDS011;9108;53.204;10.424;2023-12-20T01:29:29;24.27;;;2.75;;
17965;SDS011;9108;53.204;10.424;2023-12-20T01:31:56;25.58;;;2.85;;
17965;SDS011;9108;53.204;10.424;2023-12-20T01:34:24;20.53;;;2.40;;
17965;SDS011;9108;53.204;10.424;2023-12-20T01:36:51;19.53;;;2.70;;
17965;SDS011;9108;53.204;10.424;2023-12-20T01:39:18;20.90;;;2.50;;
17965;SDS011;9108;53.204;10.424;2023-12-20T01:41:46;23.60;;;2.67;;
17965;SDS011;9108;53.204;10.424;2023-12-20T01:44:14;19.63;;;2.45;;
17965;SDS011;9108;53.204;10.424;2023-12-20T01:46:41;18.30;;;2.60;;
17965;SDS011;9108;53.204;10.424;2023-12-20T01:49:08;24.58;;;2.65;;
17965;SDS011;9108;53.204;10.424;2023-12-20T01:51:35;20.85;;;2.38;;
17965;SDS011;9108;53.204;10.424;2023-12-20T01:54:02;20.55;;;2.55;;
17965;SDS011;9108;53.204;10.424;2023-12-20T01:56:30;20.63;;;2.25;;
17965;SDS011;9108;53.204;10.424;2023-12-20T01:58:59;22.45;;;2.53;;
17965;SDS011;9108;53.204;10.424;2023-12-20T02:01:27;19.83;;;2.50;;
17965;SDS011;9108;53.204;10.424;2023-12-20T02:03:54;15.15;;;2.50;;
17965;SDS011;9108;53.204;10.424;2023-12-20T02:06:22;26.02;;;3.10;;
17965;SDS011;9108;53.204;10.424;2023-12-20T02:08:50;22.30;;;3.25;;
17965;SDS011;9108;53.204;10.424;2023-12-20T02:11:17;28.48;;;3.65;;
17965;SDS011;9108;53.204;10.424;2023-12-20T02:13:44;20.95;;;3.35;;
17965;SDS011;9108;53.204;10.424;2023-12-20T02:16:13;24.73;;;4.00;;
17965;SDS011;9108;53.204;10.424;2023-12-20T02:18:40;26.33;;;4.07;;
17965;SDS011;9108;53.204;10.424;2023-12-20T02:21:09;25.45;;;3.95;;
17965;SDS011;9108;53.204;10.424;2023-12-20T02:23:38;22.67;;;4.03;;
17965;SDS011;9108;53.204;10.424;2023-12-20T02:26:05;26.63;;;4.30;;
17965;SDS011;9108;53.204;10.424;2023-12-20T02:28:32;24.88;;;5.10;;
17965;SDS011;9108;53.204;10.424;2023-12-20T02:31:00;26.65;;;4.90;;
17965;SDS011;9108;53.204;10.424;2023-12-20T02:33:27;32.13;;;6.00;;
17965;SDS011;9108;53.204;10.424;2023-12-20T02:35:55;28.67;;;5.90;;
17965;SDS011;9108;53.204;10.424;2023-12-20T02:38:22;26.42;;;6.22;;
17965;SDS011;9108;53.204;10.424;2023-12-20T02:40:50;27.77;;;6.53;;
17965;SDS011;9108;53.204;10.424;2023-12-20T02:43:18;28.48;;;6.72;;
17965;SDS011;9108;53.204;10.424;2023-12-20T02:45:45;28.98;;;6.57;;
17965;SDS011;9108;53.204;10.424;2023-12-20T02:48:12;30.40;;;6.32;;
17965;SDS011;9108;53.204;10.424;2023-12-20T02:50:39;32.95;;;6.32;;
17965;SDS011;9108;53.204;10.424;2023-12-20T02:53:06;29.38;;;6.22;;
17965;SDS011;9108;53.204;10.424;2023-12-20T02:55:34;21.73;;;5.82;;
17965;SDS011;9108;53.204;10.424;2023-12-20T02:58:02;28.92;;;6.38;;
17965;SDS011;9108;53.204;10.424;2023-12-20T03:00:32;32.53;;;6.20;;
17965;SDS011;9108;53.204;10.424;2023-12-20T03:02:59;25.52;;;5.50;;
17965;SDS011;9108;53.204;10.424;2023-12-20T03:05:27;21.23;;;5.40;;
17965;SDS011;9108;53.204;10.424;2023-12-20T03:07:54;25.63;;;5.35;;
17965;SDS011;9108;53.204;10.424;2023-12-20T03:10:21;26.27;;;4.93;;
17965;SDS011;9108;53.204;10.424;2023-12-20T03:12:48;23.40;;;5.05;;
17965;SDS011;9108;53.204;10.424;2023-12-20T03:15:17;24.40;;;4.70;;
17965;SDS011;9108;53.204;10.424;2023-12-20T03:17:44;23.53;;;4.57;;
17965;SDS011;9108;53.204;10.424;2023-12-20T03:20:11;24.87;;;4.60;;
17965;SDS011;9108;53.204;10.424;2023-12-20T03:22:38;20.60;;;4.30;;
17965;SDS011;9108;53.204;10.424;2023-12-20T03:25:06;22.42;;;4.47;;
17965;SDS011;9108;53.204;10.424;2023-12-20T03:27:33;21.85;;;4.30;;
17965;SDS011;9108;53.204;10.424;2023-12-20T03:30:00;22.88;;;4.68;;
17965;SDS011;9108;53.204;10.424;2023-12-20T03:32:28;21.83;;;4.32;;
17965;SDS011;9108;53.204;10.424;2023-12-20T03:34:56;25.47;;;4.37;;
17965;SDS011;9108;53.204;10.424;2023-12-20T03:37:23;26.65;;;4.45;;
17965;SDS011;9108;53.204;10.424;2023-12-20T03:39:50;21.42;;;4.40;;
17965;SDS011;9108;53.204;10.424;2023-12-20T03:42:17;26.60;;;4.55;;
17965;SDS011;9108;53.204;10.424;2023-12-20T03:44:44;24.92;;;4.47;;
17965;SDS011;9108;53.204;10.424;2023-12-20T03:47:11;25.75;;;4.35;;
17965;SDS011;9108;53.204;10.424;2023-12-20T03:49:40;21.40;;;4.03;;
17965;SDS011;9108;53.204;10.424;2023-12-20T03:52:07;20.35;;;3.90;;
17965;SDS011;9108;53.204;10.424;2023-12-20T03:54:34;22.08;;;3.60;;
17965;SDS011;9108;53.204;10.424;2023-12-20T03:57:02;22.20;;;3.65;;
17965;SDS011;9108;53.204;10.424;2023-12-20T03:59:29;15.57;;;3.30;;
17965;SDS011;9108;53.204;10.424;2023-12-20T04:01:56;17.42;;;3.22;;
17965;SDS011;9108;53.204;10.424;2023-12-20T04:04:23;21.55;;;2.95;;
17965;SDS011;9108;53.204;10.424;2023-12-20T04:06:52;15.38;;;2.97;;
17965;SDS011;9108;53.204;10.424;2023-12-20T04:09:19;15.10;;;2.90;;
17965;SDS011;9108;53.204;10.424;2023-12-20T04:11:46;14.20;;;2.53;;
17965;SDS011;9108;53.204;10.424;2023-12-20T04:14:13;16.63;;;2.88;;
17965;SDS011;9108;53.204;10.424;2023-12-20T04:16:40;20.40;;;3.30;;
17965;SDS011;9108;53.204;10.424;2023-12-20T04:19:08;18.30;;;2.90;;
17965;SDS011;9108;53.204;10.424;2023-12-20T04:21:35;20.33;;;2.83;;
17965;SDS011;9108;53.204;10.424;2023-12-20T04:24:04;14.25;;;2.58;;
17965;SDS011;9108;53.204;10.424;2023-12-20T04:26:31;15.90;;;2.90;;
17965;SDS011;9108;53.204;10.424;2023-12-20T04:28:58;15.73;;;2.60;;
17965;SDS011;9108;53.204;10.424;2023-12-20T04:31:25;19.90;;;3.20;;
17965;SDS011;9108;53.204;10.424;2023-12-20T04:33:52;21.23;;;3.03;;
17965;SDS011;9108;53.204;10.424;2023-12-20T04:36:19;18.42;;;3.03;;
17965;SDS011;9108;53.204;10.424;2023-12-20T04:38:47;16.25;;;2.95;;
17965;SDS011;9108;53.204;10.424;2023-12-20T04:41:15;18.38;;;2.78;;
17965;SDS011;9108;53.204;10.424;2023-12-20T04:43:43;21.48;;;3.38;;
17965;SDS011;9108;53.204;10.424;2023-12-20T04:46:11;18.92;;;3.33;;
17965;SDS011;9108;53.204;10.424;2023-12-20T04:48:38;18.50;;;3.30;;
17965;SDS011;9108;53.204;10.424;2023-12-20T04:51:05;17.70;;;2.90;;
17965;SDS011;9108;53.204;10.424;2023-12-20T04:53:32;20.13;;;3.20;;
17965;SDS011;9108;53.204;10.424;2023-12-20T04:55:59;18.25;;;3.13;;
17965;SDS011;9108;53.204;10.424;2023-12-20T04:58:28;19.45;;;3.30;;
17965;SDS011;9108;53.204;10.424;2023-12-20T05:00:55;18.55;;;2.90;;
17965;SDS011;9108;53.204;10.424;2023-12-20T05:03:22;19.63;;;3.28;;
17965;SDS011;9108;53.204;10.424;2023-12-20T05:05:50;18.60;;;3.17;;
17965;SDS011;9108;53.204;10.424;2023-12-20T05:08:17;23.13;;;3.45;;
17965;SDS011;9108;53.204;10.424;2023-12-20T05:10:44;21.27;;;3.72;;
17965;SDS011;9108;53.204;10.424;2023-12-20T05:13:12;22.95;;;3.70;;
17965;SDS011;9108;53.204;10.424;2023-12-20T05:15:40;25.42;;;4.10;;
17965;SDS011;9108;53.204;10.424;2023-12-20T05:18:07;17.50;;;3.53;;
17965;SDS011;9108;53.204;10.424;2023-12-20T05:20:34;23.27;;;3.58;;
17965;SDS011;9108;53.204;10.424;2023-12-20T05:23:02;18.70;;;3.40;;
17965;SDS011;9108;53.204;10.424;2023-12-20T05:25:30;26.40;;;3.63;;
17965;SDS011;9108;53.204;10.424;2023-12-20T05:27:57;17.23;;;3.35;;
17965;SDS011;9108;53.204;10.424;2023-12-20T05:30:24;22.67;;;3.85;;
17965;SDS011;9108;53.204;10.424;2023-12-20T05:32:53;22.65;;;3.65;;
17965;SDS011;9108;53.204;10.424;2023-12-20T05:35:20;22.08;;;3.50;;
17965;SDS011;9108;53.204;10.424;2023-12-20T05:37:48;18.63;;;3.55;;
17965;SDS011;9108;53.204;10.424;2023-12-20T05:40:15;20.63;;;3.35;;
17965;SDS011;9108;53.204;10.424;2023-12-20T05:42:42;22.33;;;3.83;;
17965;SDS011;9108;53.204;10.424;2023-12-20T05:45:10;23.90;;;3.63;;
17965;SDS011;9108;53.204;10.424;2023-12-20T05:47:37;23.95;;;3.70;;
17965;SDS011;9108;53.204;10.424;2023-12-20T05:50:06;23.27;;;3.80;;
17965;SDS011;9108;53.204;10.424;2023-12-20T05:52:34;20.30;;;3.70;;
17965;SDS011;9108;53.204;10.424;2023-12-20T05:55:01;19.65;;;3.55;;
17965;SDS011;9108;53.204;10.424;2023-12-20T05:57:28;20.77;;;3.70;;
17965;SDS011;9108;53.204;10.424;2023-12-20T05:59:55;22.98;;;4.18;;
17965;SDS011;9108;53.204;10.424;2023-12-20T06:02:23;24.23;;;3.50;;
17965;SDS011;9108;53.204;10.424;2023-12-20T06:04:50;18.33;;;3.40;;
17965;SDS011;9108;53.204;10.424;2023-12-20T06:07:18;27.00;;;4.15;;
17965;SDS011;9108;53.204;10.424;2023-12-20T06:09:46;20.42;;;3.90;;
17965;SDS011;9108;53.204;10.424;2023-12-20T06:12:13;16.67;;;4.00;;
17965;SDS011;9108;53.204;10.424;2023-12-20T06:14:40;22.00;;;4.17;;
17965;SDS011;9108;53.204;10.424;2023-12-20T06:17:07;20.63;;;3.58;;
17965;SDS011;9108;53.204;10.424;2023-12-20T06:19:35;20.10;;;4.22;;
17965;SDS011;9108;53.204;10.424;2023-12-20T06:22:02;19.88;;;4.00;;
17965;SDS011;9108;53.204;10.424;2023-12-20T06:24:31;22.08;;;4.13;;
17965;SDS011;9108;53.204;10.424;2023-12-20T06:26:59;24.48;;;4.32;;
17965;SDS011;9108;53.204;10.424;2023-12-20T06:29:26;23.33;;;4.37;;
17965;SDS011;9108;53.204;10.424;2023-12-20T06:31:53;19.37;;;3.67;;
17965;SDS011;9108;53.204;10.424;2023-12-20T06:34:20;23.23;;;3.97;;
17965;SDS011;9108;53.204;10.424;2023-12-20T06:36:48;24.10;;;4.25;;
17965;SDS011;9108;53.204;10.424;2023-12-20T06:39:15;22.60;;;3.67;;
17965;SDS011;9108;53.204;10.424;2023-12-20T06:41:43;25.33;;;4.50;;
17965;SDS011;9108;53.204;10.424;2023-12-20T06:44:11;24.15;;;3.70;;
17965;SDS011;9108;53.204;10.424;2023-12-20T06:46:38;23.77;;;4.47;;
17965;SDS011;9108;53.204;10.424;2023-12-20T06:49:05;21.97;;;3.97;;
17965;SDS011;9108;53.204;10.424;2023-12-20T06:51:32;23.55;;;3.97;;
17965;SDS011;9108;53.204;10.424;2023-12-20T06:53:59;31.33;;;4.75;;
17965;SDS011;9108;53.204;10.424;2023-12-20T06:56:27;21.40;;;3.90;;
17965;SDS011;9108;53.204;10.424;2023-12-20T06:58:56;28.38;;;4.30;;
17965;SDS011;9108;53.204;10.424;2023-12-20T07:01:23;24.30;;;3.67;;
17965;SDS011;9108;53.204;10.424;2023-12-20T07:03:50;31.15;;;4.30;;
17965;SDS011;9108;53.204;10.424;2023-12-20T07:06:18;25.73;;;4.10;;
17965;SDS011;9108;53.204;10.424;2023-12-20T07:08:45;19.38;;;3.67;;
17965;SDS011;9108;53.204;10.424;2023-12-20T07:11:12;24.00;;;3.95;;
17965;SDS011;9108;53.204;10.424;2023-12-20T07:13:40;22.80;;;4.00;;
17965;SDS011;9108;53.204;10.424;2023-12-20T07:16:08;21.00;;;3.70;;
17965;SDS011;9108;53.204;10.424;2023-12-20T07:18:36;29.88;;;3.90;;
17965;SDS011;9108;53.204;10.424;2023-12-20T07:21:03;26.08;;;3.80;;
17965;SDS011;9108;53.204;10.424;2023-12-20T07:23:30;19.65;;;3.47;;
17965;SDS011;9108;53.204;10.424;2023-12-20T07:25:57;23.05;;;3.75;;
17965;SDS011;9108;53.204;10.424;2023-12-20T07:28:24;20.27;;;3.60;;
17965;SDS011;9108;53.204;10.424;2023-12-20T07:30:52;24.63;;;4.10;;
17965;SDS011;9108;53.204;10.424;2023-12-20T07:33:20;25.73;;;3.95;;
17965;SDS011;9108;53.204;10.424;2023-12-20T07:35:47;24.23;;;4.05;;
17965;SDS011;9108;53.204;10.424;2023-12-20T07:38:16;23.73;;;3.90;;
17965;SDS011;9108;53.204;10.424;2023-12-20T07:40:44;23.13;;;3.50;;
17965;SDS011;9108;53.204;10.424;2023-12-20T07:43:11;27.07;;;3.67;;
17965;SDS011;9108;53.204;10.424;2023-12-20T07:45:38;23.38;;;3.30;;
17965;SDS011;9108;53.204;10.424;2023-12-20T07:48:06;24.05;;;3.50;;
17965;SDS011;9108;53.204;10.424;2023-12-20T07:50:35;20.98;;;3.38;;
17965;SDS011;9108;53.204;10.424;2023-12-20T07:53:02;23.17;;;3.43;;
17965;SDS011;9108;53.204;10.424;2023-12-20T07:55:29;24.45;;;3.75;;
17965;SDS011;9108;53.204;10.424;2023-12-20T07:57:57;24.40;;;3.58;;
17965;SDS011;9108;53.204;10.424;2023-12-20T08:00:24;24.02;;;4.07;;
17965;SDS011;9108;53.204;10.424;2023-12-20T08:02:51;23.95;;;3.47;;
17965;SDS011;9108;53.204;10.424;2023-12-20T08:05:19;20.42;;;3.25;;
17965;SDS011;9108;53.204;10.424;2023-12-20T08:07:47;27.13;;;3.58;;
17965;SDS011;9108;53.204;10.424;2023-12-20T08:10:14;27.00;;;4.07;;
17965;SDS011;9108;53.204;10.424;2023-12-20T08:12:43;28.35;;;3.95;;
17965;SDS011;9108;53.204;10.424;2023-12-20T08:15:10;26.05;;;3.80;;
17965;SDS011;9108;53.204;10.424;2023-12-20T08:17:37;29.08;;;3.75;;
17965;SDS011;9108;53.204;10.424;2023-12-20T08:20:05;26.05;;;3.78;;
17965;SDS011;9108;53.204;10.424;2023-12-20T08:22:32;27.85;;;3.90;;
17965;SDS011;9108;53.204;10.424;2023-12-20T08:25:01;30.67;;;4.18;;
17965;SDS011;9108;53.204;10.424;2023-12-20T08:27:28;28.88;;;4.40;;
17965;SDS011;9108;53.204;10.424;2023-12-20T08:29:56;26.65;;;4.40;;
17965;SDS011;9108;53.204;10.424;2023-12-20T08:32:24;30.13;;;4.78;;
17965;SDS011;9108;53.204;10.424;2023-12-20T08:34:52;26.55;;;3.75;;
17965;SDS011;9108;53.204;10.424;2023-12-20T08:37:19;22.15;;;4.20;;
17965;SDS011;9108;53.204;10.424;2023-12-20T08:39:46;26.00;;;4.20;;
17965;SDS011;9108;53.204;10.424;2023-12-20T08:42:15;30.70;;;4.20;;
17965;SDS011;9108;53.204;10.424;2023-12-20T08:44:42;25.75;;;4.20;;
17965;SDS011;9108;53.204;10.424;2023-12-20T08:47:09;26.13;;;4.38;;
17965;SDS011;9108;53.204;10.424;2023-12-20T08:49:38;20.92;;;3.78;;
17965;SDS011;9108;53.204;10.424;2023-12-20T08:52:05;27.40;;;4.18;;
17965;SDS011;9108;53.204;10.424;2023-12-20T08:54:32;23.25;;;3.88;;
17965;SDS011;9108;53.204;10.424;2023-12-20T08:56:59;24.63;;;3.95;;
17965;SDS011;9108;53.204;10.424;2023-12-20T08:59:28;29.90;;;4.35;;
17965;SDS011;9108;53.204;10.424;2023-12-20T09:01:55;29.38;;;4.18;;
17965;SDS011;9108;53.204;10.424;2023-12-20T09:04:22;26.55;;;3.50;;
17965;SDS011;9108;53.204;10.424;2023-12-20T09:06:50;23.83;;;3.85;;
17965;SDS011;9108;53.204;10.424;2023-12-20T09:09:17;29.88;;;3.67;;
17965;SDS011;9108;53.204;10.424;2023-12-20T09:11:44;24.30;;;4.13;;
17965;SDS011;9108;53.204;10.424;2023-12-20T09:14:13;22.05;;;3.65;;
17965;SDS011;9108;53.204;10.424;2023-12-20T09:16:41;26.80;;;3.55;;
17965;SDS011;9108;53.204;10.424;2023-12-20T09:19:09;26.33;;;4.05;;
17965;SDS011;9108;53.204;10.424;2023-12-20T09:21:36;25.42;;;4.22;;
17965;SDS011;9108;53.204;10.424;2023-12-20T09:24:03;25.55;;;4.03;;
17965;SDS011;9108;53.204;10.424;2023-12-20T09:26:31;20.40;;;3.53;;
17965;SDS011;9108;53.204;10.424;2023-12-20T09:28:58;23.10;;;3.88;;
17965;SDS011;9108;53.204;10.424;2023-12-20T09:31:25;26.65;;;4.40;;
17965;SDS011;9108;53.204;10.424;2023-12-20T09:33:54;25.27;;;3.83;;
17965;SDS011;9108;53.204;10.424;2023-12-20T09:36:21;24.67;;;3.92;;
17965;SDS011;9108;53.204;10.424;2023-12-20T09:38:48;26.93;;;3.97;;
17965;SDS011;9108;53.204;10.424;2023-12-20T09:41:16;28.25;;;4.43;;
17965;SDS011;9108;53.204;10.424;2023-12-20T09:43:43;24.05;;;4.25;;
17965;SDS011;9108;53.204;10.424;2023-12-20T09:46:10;21.05;;;3.67;;
17965;SDS011;9108;53.204;10.424;2023-12-20T09:48:39;28.45;;;3.83;;
17965;SDS011;9108;53.204;10.424;2023-12-20T09:51:08;32.22;;;4.82;;
17965;SDS011;9108;53.204;10.424;2023-12-20T09:53:36;30.65;;;3.92;;
17965;SDS011;9108;53.204;10.424;2023-12-20T09:56:04;26.00;;;4.28;;
17965;SDS011;9108;53.204;10.424;2023-12-20T09:58:35;26.38;;;4.03;;
17965;SDS011;9108;53.204;10.424;2023-12-20T10:01:03;19.53;;;3.37;;
17965;SDS011;9108;53.204;10.424;2023-12-20T10:03:30;18.52;;;3.40;;
17965;SDS011;9108;53.204;10.424;2023-12-20T10:05:58;19.63;;;3.80;;
17965;SDS011;9108;53.204;10.424;2023-12-20T10:08:27;16.20;;;2.70;;
17965;SDS011;9108;53.204;10.424;2023-12-20T10:10:55;11.52;;;1.50;;
17965;SDS011;9108;53.204;10.424;2023-12-20T10:13:27;11.43;;;1.50;;
17965;SDS011;9108;53.204;10.424;2023-12-20T10:15:54;9.23;;;1.30;;
17965;SDS011;9108;53.204;10.424;2023-12-20T10:18:22;5.38;;;1.25;;
17965;SDS011;9108;53.204;10.424;2023-12-20T10:20:50;9.13;;;1.20;;
17965;SDS011;9108;53.204;10.424;2023-12-20T10:23:17;3.47;;;0.90;;
17965;SDS011;9108;53.204;10.424;2023-12-20T10:25:52;6.70;;;1.20;;
17965;SDS011;9108;53.204;10.424;2023-12-20T10:28:23;7.57;;;1.37;;
17965;SDS011;9108;53.204;10.424;2023-12-20T10:30:52;8.18;;;1.40;;
17965;SDS011;9108;53.204;10.424;2023-12-20T10:33:23;8.07;;;1.30;;
17965;SDS011;9108;53.204;10.424;2023-12-20T10:35:51;8.75;;;1.33;;
17965;SDS011;9108;53.204;10.424;2023-12-20T10:38:19;9.73;;;1.50;;
17965;SDS011;9108;53.204;10.424;2023-12-20T10:40:47;7.55;;;1.00;;
17965;SDS011;9108;53.204;10.424;2023-12-20T10:43:16;6.57;;;1.20;;
17965;SDS011;9108;53.204;10.424;2023-12-20T10:45:43;6.30;;;0.90;;
17965;SDS011;9108;53.204;10.424;2023-12-20T10:48:10;8.13;;;1.00;;
17965;SDS011;9108;53.204;10.424;2023-12-20T10:50:38;5.28;;;1.15;;
17965;SDS011;9108;53.204;10.424;2023-12-20T10:53:05;5.63;;;0.80;;
17965;SDS011;9108;53.204;10.424;2023-12-20T10:55:33;3.50;;;0.85;;
17965;SDS011;9108;53.204;10.424;2023-12-20T10:58:01;4.07;;;0.63;;
17965;SDS011;9108;53.204;10.424;2023-12-20T11:00:29;2.15;;;0.60;;
17965;SDS011;9108;53.204;10.424;2023-12-20T11:03:00;4.07;;;0.75;;
17965;SDS011;9108;53.204;10.424;2023-12-20T11:05:30;3.80;;;0.60;;
17965;SDS011;9108;53.204;10.424;2023-12-20T11:07:59;4.07;;;0.60;;
17965;SDS011;9108;53.204;10.424;2023-12-20T11:10:29;3.20;;;0.50;;
17965;SDS011;9108;53.204;10.424;2023-12-20T11:12:58;6.25;;;0.68;;
17965;SDS011;9108;53.204;10.424;2023-12-20T11:15:30;5.03;;;0.52;;
17965;SDS011;9108;53.204;10.424;2023-12-20T11:17:57;4.28;;;0.60;;
17965;SDS011;9108;53.204;10.424;2023-12-20T11:20:34;3.97;;;0.90;;
17965;SDS011;9108;53.204;10.424;2023-12-20T11:23:02;3.92;;;0.70;;
17965;SDS011;9108;53.204;10.424;2023-12-20T11:25:30;5.47;;;0.87;;
17965;SDS011;9108;53.204;10.424;2023-12-20T11:28:07;4.38;;;0.77;;
17965;SDS011;9108;53.204;10.424;2023-12-20T11:30:41;5.13;;;0.70;;
17965;SDS011;9108;53.204;10.424;2023-12-20T11:33:09;6.00;;;0.75;;
17965;SDS011;9108;53.204;10.424;2023-12-20T11:35:36;9.40;;;1.40;;
17965;SDS011;9108;53.204;10.424;2023-12-20T11:38:04;7.53;;;1.20;;
17965;SDS011;9108;53.204;10.424;2023-12-20T11:40:34;6.65;;;1.23;;
17965;SDS011;9108;53.204;10.424;2023-12-20T11:43:05;10.70;;;0.95;;
17965;SDS011;9108;53.204;10.424;2023-12-20T11:45:32;7.15;;;0.90;;
17965;SDS011;9108;53.204;10.424;2023-12-20T11:48:02;5.63;;;0.80;;
17965;SDS011;9108;53.204;10.424;2023-12-20T11:50:29;8.15;;;0.95;;
17965;SDS011;9108;53.204;10.424;2023-12-20T11:52:57;6.53;;;1.02;;
17965;SDS011;9108;53.204;10.424;2023-12-20T11:55:24;7.30;;;1.30;;
17965;SDS011;9108;53.204;10.424;2023-12-20T11:57:51;9.88;;;1.00;;
17965;SDS011;9108;53.204;10.424;2023-12-20T12:00:19;12.68;;;1.17;;
17965;SDS011;9108;53.204;10.424;2023-12-20T12:02:56;12.15;;;1.35;;
17965;SDS011;9108;53.204;10.424;2023-12-20T12:05:25;8.13;;;1.48;;
17965;SDS011;9108;53.204;10.424;2023-12-20T12:07:52;10.23;;;1.00;;
17965;SDS011;9108;53.204;10.424;2023-12-20T12:10:20;10.45;;;1.30;;
17965;SDS011;9108;53.204;10.424;2023-12-20T12:12:47;8.52;;;0.90;;
17965;SDS011;9108;53.204;10.424;2023-12-20T12:15:15;10.43;;;1.30;;
17965;SDS011;9108;53.204;10.424;2023-12-20T12:17:42;7.95;;;1.50;;
17965;SDS011;9108;53.204;10.424;2023-12-20T12:20:09;10.85;;;1.45;;
17965;SDS011;9108;53.204;10.424;2023-12-20T12:22:39;7.97;;;1.20;;
17965;SDS011;9108;53.204;10.424;2023-12-20T12:25:09;12.10;;;1.20;;
17965;SDS011;9108;53.204;10.424;2023-12-20T12:27:37;8.25;;;1.08;;
17965;SDS011;9108;53.204;10.424;2023-12-20T12:30:04;6.40;;;1.05;;
17965;SDS011;9108;53.204;10.424;2023-12-20T12:32:33;10.68;;;1.13;;
17965;SDS011;9108;53.204;10.424;2023-12-20T12:35:02;9.15;;;1.10;;
17965;SDS011;9108;53.204;10.424;2023-12-20T12:37:29;10.82;;;1.20;;
17965;SDS011;9108;53.204;10.424;2023-12-20T12:39:58;11.52;;;1.67;;
17965;SDS011;9108;53.204;10.424;2023-12-20T12:42:25;10.07;;;1.58;;
17965;SDS011;9108;53.204;10.424;2023-12-20T12:44:54;11.50;;;1.60;;
17965;SDS011;9108;53.204;10.424;2023-12-20T12:47:21;15.32;;;1.60;;
17965;SDS011;9108;53.204;10.424;2023-12-20T12:49:49;10.38;;;1.25;;
17965;SDS011;9108;53.204;10.424;2023-12-20T12:52:17;10.05;;;1.35;;
17965;SDS011;9108;53.204;10.424;2023-12-20T12:54:44;10.10;;;1.13;;
17965;SDS011;9108;53.204;10.424;2023-12-20T12:57:11;11.60;;;1.65;;
17965;SDS011;9108;53.204;10.424;2023-12-20T12:59:39;10.57;;;1.50;;
17965;SDS011;9108;53.204;10.424;2023-12-20T13:02:06;13.48;;;1.45;;
17965;SDS011;9108;53.204;10.424;2023-12-20T13:04:34;13.53;;;1.40;;
17965;SDS011;9108;53.204;10.424;2023-12-20T13:07:01;11.32;;;1.42;;
17965;SDS011;9108;53.204;10.424;2023-12-20T13:09:29;9.20;;;1.30;;
17965;SDS011;9108;53.204;10.424;2023-12-20T13:11:56;7.95;;;1.10;;
17965;SDS011;9108;53.204;10.424;2023-12-20T13:14:25;7.82;;;1.13;;
17965;SDS011;9108;53.204;10.424;2023-12-20T13:16:53;6.30;;;1.17;;
17965;SDS011;9108;53.204;10.424;2023-12-20T13:19:21;5.07;;;1.20;;
17965;SDS011;9108;53.204;10.424;2023-12-20T13:21:48;6.38;;;1.17;;
17965;SDS011;9108;53.204;10.424;2023-12-20T13:24:15;7.32;;;1.30;;
17965;SDS011;9108;53.204;10.424;2023-12-20T13:26:43;6.30;;;1.23;;
17965;SDS011;9108;53.204;10.424;2023-12-20T13:29:11;9.67;;;1.20;;
17965;SDS011;9108;53.204;10.424;2023-12-20T13:31:39;6.57;;;1.10;;
17965;SDS011;9108;53.204;10.424;2023-12-20T13:34:06;10.77;;;1.30;;
17965;SDS011;9108;53.204;10.424;2023-12-20T13:36:33;8.05;;;1.52;;
17965;SDS011;9108;53.204;10.424;2023-12-20T13:39:01;12.95;;;1.55;;
17965;SDS011;9108;53.204;10.424;2023-12-20T13:41:29;13.88;;;1.48;;
17965;SDS011;9108;53.204;10.424;2023-12-20T13:43:57;12.15;;;2.00;;
17965;SDS011;9108;53.204;10.424;2023-12-20T13:46:26;14.88;;;1.90;;
17965;SDS011;9108;53.204;10.424;2023-12-20T13:48:55;17.73;;;2.28;;
17965;SDS011;9108;53.204;10.424;2023-12-20T13:51:22;14.80;;;2.20;;
17965;SDS011;9108;53.204;10.424;2023-12-20T13:53:49;19.67;;;3.20;;
17965;SDS011;9108;53.204;10.424;2023-12-20T13:56:17;17.15;;;2.95;;
17965;SDS011;9108;53.204;10.424;2023-12-20T13:58:45;17.05;;;2.80;;
17965;SDS011;9108;53.204;10.424;2023-12-20T14:01:12;18.42;;;2.78;;
17965;SDS011;9108;53.204;10.424;2023-12-20T14:03:40;19.07;;;3.17;;
17965;SDS011;9108;53.204;10.424;2023-12-20T14:06:09;25.25;;;4.63;;
17965;SDS011;9108;53.204;10.424;2023-12-20T14:08:36;26.40;;;3.85;;
17965;SDS011;9108;53.204;10.424;2023-12-20T14:11:04;22.33;;;4.00;;
17965;SDS011;9108;53.204;10.424;2023-12-20T14:13:31;23.10;;;2.85;;
17965;SDS011;9108;53.204;10.424;2023-12-20T14:15:58;22.17;;;4.10;;
17965;SDS011;9108;53.204;10.424;2023-12-20T14:18:27;24.17;;;3.27;;
17965;SDS011;9108;53.204;10.424;2023-12-20T14:20:55;18.77;;;2.65;;
17965;SDS011;9108;53.204;10.424;2023-12-20T14:23:26;21.08;;;2.97;;
17965;SDS011;9108;53.204;10.424;2023-12-20T14:25:54;17.30;;;2.85;;
17965;SDS011;9108;53.204;10.424;2023-12-20T14:28:23;20.33;;;2.70;;
17965;SDS011;9108;53.204;10.424;2023-12-20T14:30:51;22.77;;;2.97;;
17965;SDS011;9108;53.204;10.424;2023-12-20T14:33:18;18.83;;;3.40;;
17965;SDS011;9108;53.204;10.424;2023-12-20T14:35:46;17.25;;;2.70;;
17965;SDS011;9108;53.204;10.424;2023-12-20T14:38:14;25.37;;;3.10;;